createdAt,value
2022-10-23T00:00:03.969Z,236.32
2022-10-23T00:02:06.357Z,216.88
2022-10-23T00:04:20.325Z,195.07
2022-10-23T00:06:22.857Z,200.25
2022-10-23T00:08:24.927Z,139.55
2022-10-23T00:10:28.957Z,101.90
2022-10-23T00:12:31.124Z,104.80
2022-10-23T00:14:36.478Z,113.47
2022-10-23T00:16:38.703Z,117.38
2022-10-23T00:18:41.012Z,90.28
2022-10-23T00:20:43.190Z,84.53
2022-10-23T00:22:45.500Z,76.85
2022-10-23T00:24:47.816Z,82.45
2022-10-23T00:26:51.099Z,77.78
2022-10-23T00:28:54.469Z,77.97
2022-10-23T00:30:56.901Z,64.97
2022-10-23T00:32:59.008Z,58.00
2022-10-23T00:35:01.331Z,49.85
2022-10-23T00:37:03.460Z,68.30
2022-10-23T00:39:06.532Z,80.28
2022-10-23T00:41:14.935Z,77.38
2022-10-23T00:43:23.148Z,75.13
2022-10-23T00:45:27.437Z,69.63
2022-10-23T00:47:31.971Z,63.42
2022-10-23T00:49:34.647Z,79.03
2022-10-23T00:51:43.330Z,77.90
2022-10-23T00:54:01.408Z,69.20
2022-10-23T00:56:15.214Z,93.70
2022-10-23T00:58:20.483Z,89.05
2022-10-23T01:00:32.091Z,84.00
2022-10-23T01:02:35.014Z,88.60
2022-10-23T01:04:38.058Z,90.00
2022-10-23T01:07:15.943Z,97.20
2022-10-23T01:09:42.618Z,105.18
2022-10-23T01:12:07.760Z,146.95
2022-10-23T01:14:18.817Z,163.85
2022-10-23T01:16:27.269Z,130.38
2022-10-23T01:18:41.670Z,107.72
2022-10-23T01:20:43.811Z,90.82
2022-10-23T01:22:45.754Z,95.93
2022-10-23T01:25:14.118Z,87.03
2022-10-23T01:27:25.384Z,79.75
2022-10-23T01:29:39.413Z,67.72
2022-10-23T01:31:57.121Z,49.15
2022-10-23T01:34:06.383Z,45.25
2022-10-23T01:36:12.969Z,45.65
2022-10-23T01:38:27.492Z,54.53
2022-10-23T01:40:44.588Z,92.93
2022-10-23T01:42:51.014Z,91.30
2022-10-23T01:45:31.639Z,97.43
2022-10-23T01:47:38.677Z,88.18
2022-10-23T01:49:44.870Z,63.90
2022-10-23T01:51:51.971Z,71.63
2022-10-23T01:53:58.650Z,95.80
2022-10-23T01:56:03.055Z,125.07
2022-10-23T01:58:08.695Z,115.30
2022-10-23T02:00:19.016Z,107.20
2022-10-23T02:02:28.776Z,84.82
2022-10-23T02:04:41.408Z,80.90
2022-10-23T02:06:43.918Z,61.90
2022-10-23T02:08:46.280Z,51.13
2022-10-23T02:11:14.501Z,66.10
2022-10-23T02:13:25.775Z,69.32
2022-10-23T02:15:36.387Z,65.95
2022-10-23T02:18:03.701Z,54.97
2022-10-23T02:20:08.901Z,45.08
2022-10-23T02:22:26.441Z,46.75
2022-10-23T02:24:36.725Z,48.97
2022-10-23T02:26:47.093Z,57.00
2022-10-23T02:28:58.624Z,62.53
2022-10-23T02:31:04.035Z,58.38
2022-10-23T02:33:09.263Z,53.58
2022-10-23T02:35:13.466Z,42.92
2022-10-23T02:37:15.965Z,43.53
2022-10-23T02:39:18.360Z,38.88
2022-10-23T02:41:20.320Z,54.35
2022-10-23T02:43:32.567Z,102.47
2022-10-23T02:46:00.816Z,111.00
2022-10-23T02:48:27.716Z,142.10
2022-10-23T02:51:05.043Z,103.82
2022-10-23T02:53:19.139Z,62.97
2022-10-23T02:55:49.958Z,53.53
2022-10-23T02:58:17.741Z,51.42
2022-10-23T03:00:24.244Z,75.57
2022-10-23T03:02:33.380Z,80.20
2022-10-23T03:04:37.485Z,90.18
2022-10-23T03:06:39.785Z,85.57
2022-10-23T03:08:44.287Z,76.13
2022-10-23T03:10:46.403Z,69.22
2022-10-23T03:12:49.070Z,69.53
2022-10-23T03:14:51.794Z,99.20
2022-10-23T03:16:54.404Z,90.32
2022-10-23T03:19:00.824Z,64.90
2022-10-23T03:21:04.795Z,55.22
2022-10-23T03:23:13.747Z,47.17
2022-10-23T03:25:16.099Z,55.67
2022-10-23T03:28:20.681Z,82.65
2022-10-23T03:30:23.546Z,93.93
2022-10-23T03:32:29.555Z,91.82
2022-10-23T03:34:32.102Z,85.88
2022-10-23T03:36:37.041Z,68.25
2022-10-23T03:38:39.966Z,58.28
2022-10-23T03:40:43.303Z,61.05
2022-10-23T03:42:47.478Z,70.63
2022-10-23T03:44:53.981Z,74.72
2022-10-23T03:46:56.568Z,82.22
2022-10-23T03:48:59.516Z,81.68
2022-10-23T03:51:05.388Z,69.38
2022-10-23T03:53:07.399Z,68.40
2022-10-23T03:55:09.811Z,73.30
2022-10-23T03:57:12.375Z,70.60
2022-10-23T03:59:14.437Z,69.65
2022-10-23T04:01:16.588Z,81.82
2022-10-23T04:03:20.513Z,68.00
2022-10-23T04:05:22.726Z,67.72
2022-10-23T04:07:29.923Z,77.45
2022-10-23T04:09:36.227Z,92.15
2022-10-23T04:11:39.044Z,115.57
2022-10-23T04:13:41.009Z,141.82
2022-10-23T04:15:50.683Z,144.38
2022-10-23T04:17:52.903Z,129.80
2022-10-23T04:19:55.357Z,123.97
2022-10-23T04:21:57.431Z,118.65
2022-10-23T04:23:59.768Z,163.30
2022-10-23T04:26:02.373Z,198.23
2022-10-23T04:28:04.851Z,205.82
2022-10-23T04:30:12.703Z,152.25
2022-10-23T04:32:14.863Z,104.18
2022-10-23T04:34:19.663Z,122.32
2022-10-23T04:36:22.000Z,126.65
2022-10-23T04:38:24.132Z,118.68
2022-10-23T04:40:25.983Z,106.70
2022-10-23T04:42:29.965Z,90.63
2022-10-23T04:44:35.205Z,118.03
2022-10-23T04:46:37.986Z,114.45
2022-10-23T04:48:40.613Z,114.50
2022-10-23T04:51:18.425Z,141.15
2022-10-23T04:53:31.146Z,143.30
2022-10-23T04:56:06.174Z,154.10
2022-10-23T04:58:21.385Z,190.52
2022-10-23T05:00:24.696Z,193.35
2022-10-23T05:02:29.372Z,211.70
2022-10-23T05:04:32.083Z,261.60
2022-10-23T05:07:12.713Z,214.40
2022-10-23T05:09:37.641Z,182.07
2022-10-23T05:12:02.892Z,138.70
2022-10-23T05:14:05.559Z,104.95
2022-10-23T05:16:07.518Z,89.30
2022-10-23T05:18:17.905Z,78.82
2022-10-23T05:20:23.921Z,58.03
2022-10-23T05:22:30.680Z,60.63
2022-10-23T05:24:33.383Z,70.30
2022-10-23T05:26:37.461Z,66.43
2022-10-23T05:28:42.797Z,72.47
2022-10-23T05:30:49.477Z,54.60
2022-10-23T05:32:55.397Z,63.60
2022-10-23T05:35:03.095Z,70.18
2022-10-23T05:37:09.075Z,85.97
2022-10-23T05:39:13.350Z,123.10
2022-10-23T05:44:50.154Z,123.97
2022-10-23T05:47:16.121Z,108.82
2022-10-23T05:49:41.042Z,90.07
2022-10-23T05:52:15.645Z,81.28
2022-10-23T05:54:28.155Z,73.95
2022-10-23T05:56:37.013Z,74.90
2022-10-23T05:59:05.549Z,58.97
2022-10-23T06:01:25.613Z,65.18
2022-10-23T06:03:36.246Z,56.38
2022-10-23T06:05:41.056Z,51.63
2022-10-23T06:08:03.944Z,51.38
2022-10-23T06:10:06.887Z,48.72
2022-10-23T06:12:14.206Z,46.53
2022-10-23T06:14:19.951Z,46.33
2022-10-23T06:16:26.181Z,50.33
2022-10-23T06:18:29.134Z,46.33
2022-10-23T06:20:39.500Z,47.22
2022-10-23T06:22:46.836Z,49.50
2022-10-23T06:25:09.674Z,47.22
2022-10-23T06:27:11.778Z,43.22
2022-10-23T06:29:18.231Z,51.78
2022-10-23T06:31:21.826Z,49.35
2022-10-23T06:33:25.795Z,48.50
2022-10-23T06:35:28.054Z,50.13
2022-10-23T06:37:30.048Z,49.25
2022-10-23T06:39:41.541Z,47.13
2022-10-23T06:41:53.096Z,53.28
2022-10-23T06:44:13.670Z,48.80
2022-10-23T06:46:24.489Z,49.53
2022-10-23T06:49:38.439Z,50.90
2022-10-23T06:51:41.697Z,50.13
2022-10-23T06:53:47.580Z,44.30
2022-10-23T06:56:09.174Z,46.67
2022-10-23T06:58:12.143Z,42.15
2022-10-23T07:00:40.625Z,49.72
2022-10-23T07:02:43.626Z,40.92
2022-10-23T07:04:45.673Z,40.00
2022-10-23T07:06:54.759Z,37.10
2022-10-23T07:09:00.723Z,38.55
2022-10-23T07:11:23.535Z,37.35
2022-10-23T07:13:26.115Z,35.78
2022-10-23T07:15:46.846Z,49.78
2022-10-23T07:17:54.058Z,62.30
2022-10-23T07:19:57.726Z,74.18
2022-10-23T07:22:00.031Z,41.63
2022-10-23T07:24:13.776Z,40.75
2022-10-23T07:26:17.095Z,45.28
2022-10-23T07:28:19.540Z,42.13
2022-10-23T07:30:21.482Z,37.15
2022-10-23T07:32:28.751Z,36.75
2022-10-23T07:34:49.653Z,35.22
2022-10-23T07:37:00.478Z,37.00
2022-10-23T07:39:02.757Z,30.95
2022-10-23T07:41:08.986Z,30.23
2022-10-23T07:43:14.021Z,28.90
2022-10-23T07:45:16.107Z,26.17
2022-10-23T07:47:20.015Z,26.00
2022-10-23T07:49:25.580Z,27.42
2022-10-23T07:51:27.510Z,28.35
2022-10-23T07:53:35.622Z,28.70
2022-10-23T07:55:58.077Z,31.17
2022-10-23T07:58:02.353Z,23.02
2022-10-23T08:00:18.604Z,25.80
2022-10-23T08:02:30.837Z,20.13
2022-10-23T08:04:32.771Z,24.05
2022-10-23T08:06:41.406Z,19.90
2022-10-23T08:10:53.477Z,19.27
2022-10-23T08:13:01.590Z,22.92
2022-10-23T08:15:23.437Z,22.40
2022-10-23T08:17:30.169Z,20.83
2022-10-23T08:19:48.551Z,21.30
2022-10-23T08:21:54.868Z,23.67
2022-10-23T08:23:58.102Z,24.60
2022-10-23T08:26:05.556Z,29.45
2022-10-23T08:28:11.912Z,25.25
2022-10-23T08:30:25.271Z,22.23
2022-10-23T08:32:31.211Z,24.60
2022-10-23T08:34:34.775Z,24.85
2022-10-23T08:36:39.375Z,23.63
2022-10-23T08:38:41.807Z,23.27
2022-10-23T08:40:48.703Z,24.88
2022-10-23T08:43:12.149Z,22.67
2022-10-23T08:46:04.136Z,24.48
2022-10-23T08:48:38.250Z,23.23
2022-10-23T08:51:12.898Z,25.70
2022-10-23T08:53:18.149Z,22.02
2022-10-23T08:55:22.962Z,21.65
2022-10-23T08:57:33.581Z,21.77
2022-10-23T08:59:44.391Z,20.65
2022-10-23T09:02:04.848Z,19.98
2022-10-23T09:04:07.292Z,20.88
2022-10-23T09:06:20.359Z,21.83
2022-10-23T09:08:32.032Z,17.90
2022-10-23T09:10:56.887Z,19.95
2022-10-23T09:13:29.188Z,24.73
2022-10-23T09:15:41.765Z,24.20
2022-10-23T09:17:47.999Z,24.52
2022-10-23T09:19:59.299Z,23.60
2022-10-23T09:22:01.668Z,22.38
2022-10-23T09:24:04.458Z,20.20
2022-10-23T09:26:18.590Z,20.98
2022-10-23T09:28:30.423Z,24.02
2022-10-23T09:30:34.015Z,18.63
2022-10-23T09:32:38.463Z,20.13
2022-10-23T09:34:54.748Z,19.63
2022-10-23T09:37:00.201Z,19.40
2022-10-23T09:39:02.426Z,21.50
2022-10-23T09:41:16.184Z,20.13
2022-10-23T09:43:23.473Z,19.73
2022-10-23T09:45:34.968Z,20.92
2022-10-23T09:47:41.399Z,16.23
2022-10-23T09:49:49.232Z,21.48
2022-10-23T09:51:54.508Z,15.27
2022-10-23T09:54:00.858Z,19.33
2022-10-23T09:56:24.471Z,18.02
2022-10-23T09:58:54.844Z,19.55
2022-10-23T10:00:57.574Z,17.75
2022-10-23T10:03:22.707Z,19.67
2022-10-23T10:05:39.894Z,19.48
2022-10-23T10:08:03.618Z,18.23
2022-10-23T10:10:13.911Z,19.20
2022-10-23T10:12:45.897Z,16.33
2022-10-23T10:15:05.272Z,17.35
2022-10-23T10:17:15.083Z,15.95
2022-10-23T10:19:35.219Z,15.27
2022-10-23T10:21:50.614Z,14.68
2022-10-23T10:24:00.697Z,15.90
2022-10-23T10:26:02.669Z,15.98
2022-10-23T10:28:20.914Z,14.70
2022-10-23T10:30:25.007Z,12.25
2022-10-23T10:32:43.504Z,12.77
2022-10-23T10:35:19.397Z,14.05
2022-10-23T10:38:02.998Z,28.27
2022-10-23T10:40:34.801Z,25.27
2022-10-23T10:42:58.652Z,17.15
2022-10-23T10:45:01.816Z,21.88
2022-10-23T10:47:31.728Z,23.13
2022-10-23T10:49:40.888Z,19.38
2022-10-23T10:52:06.862Z,27.23
2022-10-23T10:54:21.153Z,24.08
2022-10-23T10:56:28.156Z,25.42
2022-10-23T10:58:42.211Z,29.40
2022-10-23T11:00:46.810Z,25.75
2022-10-23T11:02:48.633Z,22.48
2022-10-23T11:04:52.971Z,23.40
2022-10-23T11:06:58.179Z,19.45
2022-10-23T11:09:20.606Z,18.77
2022-10-23T11:11:32.572Z,16.10
2022-10-23T11:13:40.501Z,14.68
2022-10-23T11:15:44.307Z,13.75
2022-10-23T11:17:55.508Z,13.48
2022-10-23T11:20:18.658Z,18.73
2022-10-23T11:22:29.704Z,18.13
2022-10-23T11:24:49.468Z,16.27
2022-10-23T11:27:10.849Z,13.25
2022-10-23T11:29:27.917Z,12.60
2022-10-23T11:31:59.852Z,13.02
2022-10-23T11:34:53.050Z,13.20
2022-10-23T11:36:59.031Z,14.15
2022-10-23T11:39:22.336Z,34.08
2022-10-23T11:41:34.007Z,34.55
2022-10-23T11:43:50.642Z,37.45
2022-10-23T11:45:52.602Z,107.72
2022-10-23T11:48:22.951Z,126.45
2022-10-23T11:50:34.342Z,84.18
2022-10-23T11:52:45.618Z,70.68
2022-10-23T11:55:22.814Z,116.95
2022-10-23T11:57:25.399Z,233.88
2022-10-23T11:59:50.118Z,281.08
2022-10-23T12:01:55.715Z,147.80
2022-10-23T12:04:19.043Z,96.95
2022-10-23T12:06:31.508Z,66.90
2022-10-23T12:08:40.599Z,40.25
2022-10-23T12:10:48.326Z,28.90
2022-10-23T12:13:06.275Z,32.22
2022-10-23T12:15:19.182Z,25.33
2022-10-23T12:17:23.920Z,16.70
2022-10-23T12:19:30.753Z,12.75
2022-10-23T12:21:35.900Z,16.77
2022-10-23T12:24:09.778Z,11.65
2022-10-23T12:26:23.638Z,52.55
2022-10-23T12:28:38.280Z,34.95
2022-10-23T12:30:50.811Z,30.52
2022-10-23T12:33:20.866Z,30.80
2022-10-23T12:35:26.055Z,16.65
2022-10-23T12:37:46.365Z,32.90
2022-10-23T12:39:59.363Z,27.95
2022-10-23T12:42:01.345Z,17.67
2022-10-23T12:44:05.341Z,27.88
2022-10-23T12:46:33.983Z,22.63
2022-10-23T12:48:36.528Z,20.15
2022-10-23T12:50:38.562Z,18.95
2022-10-23T12:53:10.111Z,20.25
2022-10-23T12:55:14.648Z,18.45
2022-10-23T12:57:25.841Z,15.82
2022-10-23T12:59:39.344Z,13.80
2022-10-23T13:01:43.347Z,17.77
2022-10-23T13:03:46.203Z,17.27
2022-10-23T13:05:50.749Z,18.65
2022-10-23T13:07:53.181Z,11.30
2022-10-23T13:10:04.990Z,11.95
2022-10-23T13:15:58.314Z,10.60
2022-10-23T13:18:03.700Z,9.40
2022-10-23T13:20:35.362Z,12.25
2022-10-23T13:22:40.546Z,13.45
2022-10-23T13:24:43.259Z,11.07
2022-10-23T13:26:45.594Z,9.68
2022-10-23T13:28:47.960Z,10.50
2022-10-23T13:31:08.199Z,12.05
2022-10-23T13:33:21.979Z,12.30
2022-10-23T13:35:24.783Z,17.65
2022-10-23T13:37:30.685Z,9.55
2022-10-23T13:39:34.272Z,9.93
2022-10-23T13:41:40.110Z,8.50
2022-10-23T13:43:43.235Z,8.93
2022-10-23T13:45:45.625Z,10.35
2022-10-23T13:47:47.864Z,14.65
2022-10-23T13:49:50.179Z,15.77
2022-10-23T13:51:55.368Z,18.75
2022-10-23T13:53:57.782Z,18.92
2022-10-23T13:55:59.859Z,16.95
2022-10-23T13:58:02.760Z,18.27
2022-10-23T14:00:05.404Z,22.40
2022-10-23T14:02:25.118Z,41.95
2022-10-23T14:04:27.593Z,40.42
2022-10-23T14:06:30.552Z,93.93
2022-10-23T14:08:32.532Z,189.70
2022-10-23T14:10:35.187Z,184.45
2022-10-23T14:12:44.383Z,169.20
2022-10-23T14:14:51.948Z,160.88
2022-10-23T14:16:54.990Z,157.80
2022-10-23T14:18:59.797Z,173.90
2022-10-23T14:21:03.195Z,201.70
2022-10-23T14:23:05.498Z,171.15
2022-10-23T14:25:07.794Z,179.63
2022-10-23T14:27:09.846Z,175.25
2022-10-23T14:29:21.186Z,149.27
2022-10-23T14:31:26.349Z,105.22
2022-10-23T14:33:28.379Z,80.63
2022-10-23T14:35:30.695Z,82.20
2022-10-23T14:37:34.475Z,74.47
2022-10-23T14:39:37.006Z,58.53
2022-10-23T14:41:40.641Z,40.65
2022-10-23T14:43:43.322Z,33.53
2022-10-23T14:45:45.521Z,37.30
2022-10-23T14:47:47.845Z,35.30
2022-10-23T14:49:52.513Z,31.60
2022-10-23T14:51:54.695Z,29.35
2022-10-23T14:54:01.763Z,41.45
2022-10-23T14:56:04.834Z,45.45
2022-10-23T14:58:07.372Z,41.83
2022-10-23T15:00:10.202Z,32.92
2022-10-23T15:02:12.416Z,29.77
2022-10-23T15:04:14.931Z,30.35
2022-10-23T15:06:18.495Z,28.05
2022-10-23T15:08:24.801Z,30.77
2022-10-23T15:10:27.319Z,30.70
2022-10-23T15:12:29.544Z,51.38
2022-10-23T15:14:31.914Z,53.15
2022-10-23T15:16:41.311Z,55.25
2022-10-23T15:18:43.688Z,57.75
2022-10-23T15:20:52.628Z,55.38
2022-10-23T15:22:54.675Z,59.75
2022-10-23T15:24:57.535Z,60.67
2022-10-23T15:27:00.381Z,60.58
2022-10-23T15:29:02.696Z,58.63
2022-10-23T15:31:05.603Z,60.05
2022-10-23T15:33:08.036Z,50.33
2022-10-23T15:35:10.168Z,44.35
2022-10-23T15:37:12.135Z,45.50
2022-10-23T15:39:17.677Z,45.75
2022-10-23T15:41:28.374Z,43.85
2022-10-23T15:43:30.445Z,39.65
2022-10-23T15:45:32.748Z,35.05
2022-10-23T15:47:34.885Z,34.53
2022-10-23T15:49:37.554Z,32.13
2022-10-23T15:51:40.897Z,31.60
2022-10-23T15:53:43.166Z,27.85
2022-10-23T15:55:45.694Z,28.90
2022-10-23T15:57:48.057Z,26.92
2022-10-23T15:59:51.450Z,24.42
2022-10-23T16:01:54.354Z,22.73
2022-10-23T16:03:56.662Z,23.20
2022-10-23T16:05:58.768Z,23.55
2022-10-23T16:08:00.929Z,25.42
2022-10-23T16:10:03.139Z,25.80
2022-10-23T16:12:05.465Z,30.00
2022-10-23T16:14:08.453Z,29.70
2022-10-23T16:16:11.129Z,26.58
2022-10-23T16:18:13.340Z,28.45
2022-10-23T16:20:16.257Z,23.70
2022-10-23T16:22:18.688Z,27.42
2022-10-23T16:24:20.689Z,25.70
2022-10-23T16:26:23.794Z,32.00
2022-10-23T16:28:25.838Z,26.75
2022-10-23T16:30:28.287Z,25.42
2022-10-23T16:32:30.390Z,26.00
2022-10-23T16:34:32.439Z,37.15
2022-10-23T16:36:34.939Z,56.83
2022-10-23T16:38:56.030Z,52.40
2022-10-23T16:41:18.333Z,54.03
2022-10-23T16:43:38.835Z,47.60
2022-10-23T16:46:12.944Z,43.13
2022-10-23T16:48:15.210Z,35.78
2022-10-23T16:50:18.038Z,39.05
2022-10-23T16:52:20.328Z,32.05
2022-10-23T16:54:22.443Z,29.98
2022-10-23T16:56:28.797Z,28.50
2022-10-23T16:58:30.850Z,26.13
2022-10-23T17:00:35.382Z,27.95
2022-10-23T17:02:38.365Z,26.05
2022-10-23T17:04:40.731Z,26.45
2022-10-23T17:06:42.726Z,29.52
2022-10-23T17:08:47.521Z,23.95
2022-10-23T17:10:49.501Z,20.50
2022-10-23T17:12:51.748Z,21.30
2022-10-23T17:14:53.864Z,24.48
2022-10-23T17:17:01.664Z,23.20
2022-10-23T17:19:15.995Z,23.58
2022-10-23T17:21:23.270Z,27.40
2022-10-23T17:23:25.554Z,24.60
2022-10-23T17:25:27.939Z,23.55
2022-10-23T17:27:29.858Z,23.38
2022-10-23T17:29:31.997Z,19.75
2022-10-23T17:31:36.062Z,21.00
2022-10-23T17:33:38.332Z,18.52
2022-10-23T17:35:40.281Z,20.33
2022-10-23T17:37:42.339Z,20.15
2022-10-23T17:39:44.442Z,18.80
2022-10-23T17:41:47.399Z,19.02
2022-10-23T17:43:50.441Z,23.02
2022-10-23T17:45:52.505Z,23.75
2022-10-23T17:47:54.616Z,19.38
2022-10-23T17:49:56.715Z,20.75
2022-10-23T17:51:58.953Z,18.23
2022-10-23T17:54:04.643Z,19.52
2022-10-23T17:56:08.945Z,21.23
2022-10-23T17:58:11.133Z,22.10
2022-10-23T18:00:13.242Z,33.80
2022-10-23T18:02:15.342Z,161.77
2022-10-23T18:04:19.238Z,205.40
2022-10-23T18:06:29.657Z,181.95
2022-10-23T18:08:31.708Z,139.30
2022-10-23T18:10:36.290Z,127.03
2022-10-23T18:16:27.829Z,52.17
2022-10-23T18:18:29.990Z,46.95
2022-10-23T18:20:31.964Z,39.47
2022-10-23T18:22:34.174Z,43.03
2022-10-23T18:24:38.408Z,40.88
2022-10-23T18:26:41.665Z,41.30
2022-10-23T18:28:45.766Z,33.97
2022-10-23T18:30:50.188Z,40.72
2022-10-23T18:32:55.958Z,44.05
2022-10-23T18:34:58.286Z,53.55
2022-10-23T18:37:01.116Z,57.88
2022-10-23T18:39:04.837Z,57.15
2022-10-23T18:41:07.185Z,57.40
2022-10-23T18:43:14.853Z,55.90
2022-10-23T18:45:17.400Z,56.80
2022-10-23T18:47:19.484Z,70.25
2022-10-23T18:49:21.654Z,61.63
2022-10-23T18:51:32.166Z,94.63
2022-10-23T18:53:34.266Z,83.07
2022-10-23T18:55:36.408Z,103.20
2022-10-23T18:57:39.109Z,85.32
2022-10-23T18:59:41.118Z,69.72
2022-10-23T19:01:43.714Z,67.50
2022-10-23T19:03:45.993Z,51.55
2022-10-23T19:05:48.802Z,32.42
2022-10-23T19:07:51.071Z,34.33
2022-10-23T19:09:53.473Z,31.92
2022-10-23T19:11:55.605Z,42.22
2022-10-23T19:13:57.565Z,52.67
2022-10-23T19:15:59.774Z,99.18
2022-10-23T19:18:02.290Z,160.70
2022-10-23T19:20:11.238Z,137.50
2022-10-23T19:22:15.481Z,130.52
2022-10-23T19:24:25.854Z,123.35
2022-10-23T19:26:29.754Z,68.43
2022-10-23T19:28:37.598Z,93.50
2022-10-23T19:30:40.380Z,87.93
2022-10-23T19:32:44.322Z,93.65
2022-10-23T19:34:46.724Z,97.68
2022-10-23T19:36:50.000Z,114.18
2022-10-23T19:38:51.966Z,97.28
2022-10-23T19:40:54.112Z,68.10
2022-10-23T19:42:56.204Z,56.75
2022-10-23T19:44:58.371Z,50.25
2022-10-23T19:47:00.399Z,51.80
2022-10-23T19:49:02.383Z,45.17
2022-10-23T19:51:09.365Z,42.67
2022-10-23T19:53:11.362Z,48.20
2022-10-23T19:56:15.243Z,56.53
2022-10-23T19:58:17.079Z,78.18
2022-10-23T20:00:20.653Z,74.45
2022-10-23T20:02:22.800Z,56.22
2022-10-23T20:04:24.923Z,43.30
2022-10-23T20:06:29.486Z,35.03
2022-10-23T20:08:34.952Z,37.80
2022-10-23T20:10:41.880Z,37.95
2022-10-23T20:12:47.539Z,30.83
2022-10-23T20:15:01.925Z,32.38
2022-10-23T20:17:03.813Z,33.17
2022-10-23T20:19:09.582Z,28.17
2022-10-23T20:21:11.770Z,34.47
2022-10-23T20:23:14.097Z,34.22
2022-10-23T20:25:19.137Z,32.70
2022-10-23T20:27:21.244Z,30.85
2022-10-23T20:29:24.941Z,33.90
2022-10-23T20:31:28.335Z,48.05
2022-10-23T20:33:32.887Z,49.97
2022-10-23T20:35:42.641Z,49.80
2022-10-23T20:37:44.754Z,33.05
2022-10-23T20:39:47.252Z,22.17
2022-10-23T20:41:49.617Z,21.90
2022-10-23T20:43:51.669Z,17.92
2022-10-23T20:45:53.513Z,16.98
2022-10-23T20:47:57.703Z,17.17
2022-10-23T20:50:00.034Z,17.10
2022-10-23T20:52:03.254Z,17.85
2022-10-23T20:54:08.189Z,18.25
2022-10-23T20:56:14.375Z,18.70
2022-10-23T20:58:16.298Z,19.58
2022-10-23T21:01:21.630Z,22.23
2022-10-23T21:03:23.754Z,21.92
2022-10-23T21:05:25.847Z,22.42
2022-10-23T21:07:27.978Z,22.48
2022-10-23T21:09:30.847Z,21.10
2022-10-23T21:11:34.128Z,20.60
2022-10-23T21:13:36.651Z,20.63
2022-10-23T21:15:38.736Z,17.23
2022-10-23T21:17:41.300Z,22.33
2022-10-23T21:19:43.482Z,19.58
2022-10-23T21:21:45.423Z,19.17
2022-10-23T21:23:49.504Z,20.17
2022-10-23T21:25:51.489Z,17.60
2022-10-23T21:27:53.498Z,21.58
2022-10-23T21:29:55.515Z,19.83
2022-10-23T21:32:00.128Z,19.85
2022-10-23T21:34:02.467Z,19.10
2022-10-23T21:36:13.665Z,17.35
2022-10-23T21:38:16.416Z,19.25
2022-10-23T21:40:18.763Z,15.38
2022-10-23T21:42:21.317Z,15.38
2022-10-23T21:44:23.410Z,13.15
2022-10-23T21:46:26.982Z,12.82
2022-10-23T21:48:29.166Z,15.13
2022-10-23T21:50:34.153Z,15.88
2022-10-23T21:52:36.401Z,13.57
2022-10-23T21:54:38.486Z,15.10
2022-10-23T21:56:45.816Z,14.18
2022-10-23T21:58:47.805Z,14.70
2022-10-23T22:00:50.271Z,15.18
2022-10-23T22:02:52.370Z,14.00
2022-10-23T22:04:54.748Z,13.85
2022-10-23T22:06:56.723Z,16.00
2022-10-23T22:09:00.648Z,16.92
2022-10-23T22:11:05.582Z,16.15
2022-10-23T22:13:07.612Z,20.60
2022-10-23T22:15:10.302Z,21.20
2022-10-23T22:17:12.277Z,16.58
2022-10-23T22:19:16.491Z,16.63
2022-10-23T22:21:21.249Z,16.50
2022-10-23T22:23:23.339Z,16.75
2022-10-23T22:25:25.479Z,16.27
2022-10-23T22:27:28.085Z,14.95
2022-10-23T22:29:31.059Z,15.90
2022-10-23T22:31:34.867Z,15.57
2022-10-23T22:33:37.028Z,15.10
2022-10-23T22:35:39.167Z,16.20
2022-10-23T22:37:41.503Z,13.75
2022-10-23T22:39:43.535Z,17.30
2022-10-23T22:41:47.189Z,13.48
2022-10-23T22:43:53.641Z,15.05
2022-10-23T22:46:02.947Z,15.40
2022-10-23T22:48:05.180Z,14.77
2022-10-23T22:50:07.863Z,14.27
2022-10-23T22:52:10.058Z,16.33
2022-10-23T22:54:12.135Z,13.48
2022-10-23T22:56:18.075Z,14.18
2022-10-23T22:58:20.641Z,14.50
2022-10-23T23:00:22.767Z,16.63
2022-10-23T23:02:24.700Z,14.93
2022-10-23T23:04:43.125Z,12.00
2022-10-23T23:06:45.849Z,14.77
2022-10-23T23:08:49.436Z,16.05
2022-10-23T23:10:56.587Z,13.32
2022-10-23T23:12:58.606Z,14.48
2022-10-23T23:15:00.954Z,14.75
2022-10-23T23:17:03.905Z,13.93
2022-10-23T23:19:06.429Z,13.30
2022-10-23T23:21:08.396Z,12.98
2022-10-23T23:23:12.700Z,14.00
2022-10-23T23:25:14.828Z,12.25
2022-10-23T23:27:16.799Z,14.85
2022-10-23T23:29:19.667Z,11.40
2022-10-23T23:31:25.534Z,13.63
2022-10-23T23:33:27.808Z,14.57
2022-10-23T23:35:30.144Z,12.38
2022-10-23T23:37:32.152Z,11.60
2022-10-23T23:39:34.315Z,12.10
2022-10-23T23:41:36.540Z,9.15
2022-10-23T23:43:38.880Z,11.88
2022-10-23T23:45:41.369Z,8.00
2022-10-23T23:47:43.626Z,10.30
2022-10-23T23:49:45.954Z,9.27
2022-10-23T23:51:48.151Z,12.10
2022-10-23T23:53:51.301Z,9.52
2022-10-23T23:55:53.461Z,8.90
2022-10-23T23:57:56.687Z,10.68
2022-10-23T23:59:59.075Z,10.40
